Time;durP1;ratioP1;P1;durP2;ratioP2;P2;SDS_P1;SDS_P2;PMS_P1;PMS_P2;Temp;Humidity;BMP_temperature;BMP_pressure;BME280_temperature;BME280_humidity;BME280_pressure;Samples;Min_cycle;Max_cycle;Signal;HPM_P1;HPM_P2
2021/05/09 00:00:58;;;;;;;;;;;;;;;4.08;61.60;97174.81;1731283;81;20226;-58
2021/05/09 00:03:26;;;;;;;;;;;;;;;4.09;61.74;97170.05;1727295;82;20219;-58
2021/05/09 00:05:54;;;;;;;;;;;;;;;4.09;61.65;97175.19;1738849;81;20226;-57
2021/05/09 00:08:21;;;;;;;;;;;;;;;4.10;61.83;97172.19;1728338;82;21222;-61
2021/05/09 00:10:49;;;;;;;;;;;;;;;4.10;61.93;97174.30;1737702;81;20491;-58
2021/05/09 00:13:16;;;;;;;;;;;;;;;4.09;61.55;97180.33;1738011;81;20518;-58
2021/05/09 00:15:43;;;;;;;;;;;;;;;4.03;61.59;97181.84;1725398;81;20225;-57
2021/05/09 00:18:11;;;;;;;;;;;;;;;3.98;61.93;97179.86;1734286;81;20215;-58
2021/05/09 00:20:39;;;;;;;;;;;;;;;3.94;61.82;97179.13;1728828;81;21382;-57
2021/05/09 00:23:07;;;;;;;;;;;;;;;3.94;61.83;97184.72;1721958;82;20214;-58
2021/05/09 00:25:35;;;;;;;;;;;;;;;3.89;61.81;97180.19;1732750;81;20253;-57
2021/05/09 00:28:02;;;;;;;;;;;;;;;3.82;61.93;97176.55;1732801;81;20235;-57
2021/05/09 00:30:30;;;;;;;;;;;;;;;3.75;62.15;97182.78;1731092;81;20242;-59
2021/05/09 00:32:57;;;;;;;;;;;;;;;3.69;62.38;97180.42;1734605;81;22286;-58
2021/05/09 00:35:26;;;;;;;;;;;;;;;3.63;62.66;97182.73;1731584;81;20221;-58
2021/05/09 00:37:54;;;;;;;;;;;;;;;3.59;62.71;97182.45;1738360;81;20289;-57
2021/05/09 00:40:21;;;;;;;;;;;;;;;3.58;62.75;97181.22;1734325;81;21056;-58
2021/05/09 00:42:49;;;;;;;;;;;;;;;3.55;62.61;97187.73;1720025;81;20242;-58
2021/05/09 00:45:16;;;;;;;;;;;;;;;3.55;62.62;97187.27;1733248;82;21222;-57
2021/05/09 00:47:45;;;;;;;;;;;;;;;3.52;62.70;97186.13;1733646;81;20286;-58
2021/05/09 00:50:12;;;;;;;;;;;;;;;3.48;62.85;97190.48;1690441;82;20245;-58
2021/05/09 00:52:40;;;;;;;;;;;;;;;3.46;62.88;97183.29;1729659;81;20596;-58
2021/05/09 00:55:10;;;;;;;;;;;;;;;3.43;62.88;97190.25;1733720;81;20881;-57
2021/05/09 00:57:37;;;;;;;;;;;;;;;3.40;63.03;97193.75;1688981;83;21225;-59
2021/05/09 01:00:07;;;;;;;;;;;;;;;3.39;63.04;97189.52;1714897;81;20278;-59
2021/05/09 01:02:35;;;;;;;;;;;;;;;3.41;63.20;97190.76;1723910;81;20504;-58
2021/05/09 01:05:04;;;;;;;;;;;;;;;3.41;63.08;97194.61;1721704;82;20219;-59
2021/05/09 01:07:32;;;;;;;;;;;;;;;3.40;63.08;97196.77;1712585;81;20290;-59
2021/05/09 01:10:00;;;;;;;;;;;;;;;3.41;62.95;97199.73;1719637;82;21396;-57
2021/05/09 01:12:27;;;;;;;;;;;;;;;3.38;62.97;97192.14;1726546;81;20246;-58
2021/05/09 01:14:57;;;;;;;;;;;;;;;3.37;63.12;97201.56;1715495;81;20219;-58
2021/05/09 01:17:24;;;;;;;;;;;;;;;3.36;63.12;97199.88;1717899;81;20258;-58
2021/05/09 01:19:53;;;;;;;;;;;;;;;3.34;63.12;97203.36;1717769;81;20498;-58
2021/05/09 01:22:22;;;;;;;;;;;;;;;3.34;63.10;97195.25;1722290;81;21410;-59
2021/05/09 01:24:51;;;;;;;;;;;;;;;3.38;62.95;97195.98;1718991;81;20398;-59
2021/05/09 01:27:19;;;;;;;;;;;;;;;3.35;63.04;97195.63;1725766;81;20233;-59
2021/05/09 01:29:48;;;;;;;;;;;;;;;3.32;63.07;97194.44;1721297;81;20233;-59
2021/05/09 01:32:16;;;;;;;;;;;;;;;3.27;63.19;97201.02;1714593;82;20243;-60
2021/05/09 01:34:43;;;;;;;;;;;;;;;3.24;63.28;97199.83;1724357;81;22131;-59
2021/05/09 01:37:11;;;;;;;;;;;;;;;3.23;63.43;97196.03;1715970;81;20224;-60
2021/05/09 01:39:38;;;;;;;;;;;;;;;3.18;63.45;97200.47;1713675;81;20229;-60
2021/05/09 01:42:06;;;;;;;;;;;;;;;3.13;63.65;97193.73;1720229;81;20515;-60
2021/05/09 01:44:35;;;;;;;;;;;;;;;3.14;63.72;97199.70;1719530;82;20258;-58
2021/05/09 01:47:03;;;;;;;;;;;;;;;3.13;63.75;97202.72;1713308;81;21267;-60
2021/05/09 01:49:31;;;;;;;;;;;;;;;3.14;63.75;97206.11;1723599;81;20655;-59
2021/05/09 01:51:59;;;;;;;;;;;;;;;3.13;63.77;97202.72;1723214;81;20214;-54
2021/05/09 01:54:27;;;;;;;;;;;;;;;3.10;63.87;97197.67;1719162;82;20219;-58
2021/05/09 01:56:54;;;;;;;;;;;;;;;3.09;63.83;97211.41;1734071;81;20242;-59
2021/05/09 01:59:22;;;;;;;;;;;;;;;3.10;63.81;97207.94;1730958;82;21215;-59
2021/05/09 02:01:53;;;;;;;;;;;;;;;3.08;63.93;97209.72;1729310;81;20250;-58
2021/05/09 02:04:28;;;;;;;;;;;;;;;3.08;64.01;97218.69;1714262;81;20484;-58
2021/05/09 02:06:58;;;;;;;;;;;;;;;3.12;63.86;97213.02;1724342;81;20245;-59
2021/05/09 02:09:26;;;;;;;;;;;;;;;3.16;63.87;97212.47;1737953;81;20278;-59
2021/05/09 02:11:55;;;;;;;;;;;;;;;3.19;63.73;97214.95;1730526;82;21167;-59
2021/05/09 02:14:24;;;;;;;;;;;;;;;3.21;63.65;97213.20;1727056;81;20215;-58
2021/05/09 02:16:53;;;;;;;;;;;;;;;3.20;63.65;97214.90;1734847;81;20234;-58
2021/05/09 02:19:21;;;;;;;;;;;;;;;3.20;63.61;97217.47;1735659;82;20275;-59
2021/05/09 02:21:49;;;;;;;;;;;;;;;3.19;63.60;97217.09;1730764;81;20233;-59
2021/05/09 02:24:17;;;;;;;;;;;;;;;3.21;63.59;97218.33;1733269;81;21425;-58
2021/05/09 02:26:46;;;;;;;;;;;;;;;3.22;63.58;97219.98;1727881;81;20267;-59
2021/05/09 02:29:13;;;;;;;;;;;;;;;3.25;63.60;97225.85;1720306;81;20252;-59
2021/05/09 02:31:41;;;;;;;;;;;;;;;3.28;63.63;97228.78;1719647;81;20221;-58
2021/05/09 02:34:12;;;;;;;;;;;;;;;3.31;63.62;97222.27;1720455;82;20222;-59
2021/05/09 02:36:39;;;;;;;;;;;;;;;3.33;63.60;97224.34;1730233;81;21421;-57
2021/05/09 02:39:07;;;;;;;;;;;;;;;3.37;63.67;97225.94;1731247;81;20610;-60
2021/05/09 02:41:36;;;;;;;;;;;;;;;3.44;63.61;97226.13;1727548;81;20236;-61
2021/05/09 02:44:04;;;;;;;;;;;;;;;3.55;63.42;97222.38;1734355;81;20709;-59
2021/05/09 02:46:32;;;;;;;;;;;;;;;3.63;63.07;97223.79;1726260;81;20459;-61
2021/05/09 02:49:00;;;;;;;;;;;;;;;3.71;63.13;97235.09;1737175;81;21201;-60
2021/05/09 02:51:28;;;;;;;;;;;;;;;3.81;62.56;97229.22;1723316;82;20214;-59
2021/05/09 02:53:56;;;;;;;;;;;;;;;3.90;62.50;97228.92;1734614;81;20304;-59
2021/05/09 02:56:23;;;;;;;;;;;;;;;3.96;62.10;97230.43;1731671;81;20453;-57
2021/05/09 02:58:52;;;;;;;;;;;;;;;4.03;62.37;97234.03;1721544;81;20223;-59
2021/05/09 03:01:19;;;;;;;;;;;;;;;4.16;62.01;97238.73;1718528;81;21222;-60
2021/05/09 03:03:47;;;;;;;;;;;;;;;4.24;61.27;97235.03;1720391;81;20248;-58
2021/05/09 03:06:15;;;;;;;;;;;;;;;4.31;61.31;97243.78;1723440;82;20604;-59
2021/05/09 03:08:43;;;;;;;;;;;;;;;4.40;60.73;97239.62;1719939;81;21282;-59
2021/05/09 03:11:11;;;;;;;;;;;;;;;4.45;60.75;97239.00;1720520;81;20220;-59
2021/05/09 03:13:40;;;;;;;;;;;;;;;4.53;60.36;97241.31;1720906;81;20209;-61
2021/05/09 03:16:08;;;;;;;;;;;;;;;4.59;60.34;97243.66;1720875;83;20207;-59
2021/05/09 03:18:37;;;;;;;;;;;;;;;4.68;60.07;97245.05;1719795;81;20502;-59
2021/05/09 03:21:04;;;;;;;;;;;;;;;4.72;60.22;97245.31;1717863;82;20219;-59
2021/05/09 03:23:32;;;;;;;;;;;;;;;4.80;59.78;97240.73;1724722;81;20264;-60
2021/05/09 03:25:59;;;;;;;;;;;;;;;4.85;59.56;97251.71;1726679;81;21224;-59
2021/05/09 03:28:27;;;;;;;;;;;;;;;4.88;59.51;97252.86;1722621;81;20234;-59
2021/05/09 03:30:54;;;;;;;;;;;;;;;4.90;59.33;97250.23;1709062;81;20222;-59
2021/05/09 03:33:22;;;;;;;;;;;;;;;4.93;59.45;97260.41;1715250;81;20690;-59
2021/05/09 03:35:50;;;;;;;;;;;;;;;5.00;59.36;97258.02;1724797;81;20222;-59
2021/05/09 03:38:17;;;;;;;;;;;;;;;5.09;59.30;97246.08;1718547;81;21858;-59
2021/05/09 03:40:44;;;;;;;;;;;;;;;5.24;59.01;97254.11;1722391;81;20221;-57
2021/05/09 03:43:12;;;;;;;;;;;;;;;5.42;58.76;97258.99;1728681;81;20212;-60
2021/05/09 03:45:39;;;;;;;;;;;;;;;5.55;57.93;97263.22;1724613;81;20242;-60
2021/05/09 03:48:07;;;;;;;;;;;;;;;5.58;57.69;97260.06;1710770;81;20505;-59
2021/05/09 03:50:34;;;;;;;;;;;;;;;5.61;57.77;97258.66;1718892;81;22127;-59
2021/05/09 03:53:01;;;;;;;;;;;;;;;5.68;57.59;97258.80;1725475;82;21290;-60
2021/05/09 03:55:30;;;;;;;;;;;;;;;5.81;57.23;97256.56;1723289;83;20231;-59
2021/05/09 03:57:58;;;;;;;;;;;;;;;5.94;56.64;97260.77;1729021;81;20253;-58
2021/05/09 04:00:26;;;;;;;;;;;;;;;6.00;56.74;97257.12;1732657;81;20256;-59
2021/05/09 04:02:55;;;;;;;;;;;;;;;6.10;56.32;97262.73;1732581;81;21258;-59
2021/05/09 04:05:23;;;;;;;;;;;;;;;6.06;56.30;97264.60;1730016;81;20218;-61
2021/05/09 04:07:52;;;;;;;;;;;;;;;6.06;56.40;97260.73;1727536;81;20211;-59
2021/05/09 04:10:19;;;;;;;;;;;;;;;6.17;55.83;97267.57;1728268;81;20281;-59
2021/05/09 04:12:48;;;;;;;;;;;;;;;6.29;55.39;97266.67;1736994;81;20215;-60
2021/05/09 04:15:16;;;;;;;;;;;;;;;6.30;55.35;97273.05;1726043;82;20580;-58
2021/05/09 04:17:43;;;;;;;;;;;;;;;6.27;54.71;97259.00;1731485;81;20219;-59
2021/05/09 04:20:12;;;;;;;;;;;;;;;6.23;55.08;97267.32;1736236;81;20226;-60
2021/05/09 04:22:40;;;;;;;;;;;;;;;6.23;55.06;97271.19;1735110;81;20214;-61
2021/05/09 04:25:09;;;;;;;;;;;;;;;6.36;54.57;97268.90;1734215;81;20231;-59
2021/05/09 04:27:36;;;;;;;;;;;;;;;6.42;54.51;97276.38;1729859;81;21416;-59
2021/05/09 04:30:05;;;;;;;;;;;;;;;6.41;54.78;97276.02;1736621;81;20228;-59
2021/05/09 04:32:32;;;;;;;;;;;;;;;6.45;54.77;97281.41;1732517;81;20245;-59
2021/05/09 04:35:01;;;;;;;;;;;;;;;6.53;54.78;97278.51;1730245;81;20218;-60
2021/05/09 04:37:28;;;;;;;;;;;;;;;6.63;54.75;97279.77;1731934;81;20207;-58
2021/05/09 04:39:56;;;;;;;;;;;;;;;6.73;54.59;97278.09;1736575;81;21222;-60
2021/05/09 04:42:23;;;;;;;;;;;;;;;6.79;54.63;97285.54;1731040;81;21194;-60
2021/05/09 04:44:51;;;;;;;;;;;;;;;6.78;54.59;97285.17;1729253;81;20503;-59
2021/05/09 04:47:19;;;;;;;;;;;;;;;6.85;54.31;97288.31;1732814;82;20221;-59
2021/05/09 04:49:47;;;;;;;;;;;;;;;6.96;53.99;97290.80;1725064;81;20501;-59
2021/05/09 04:52:14;;;;;;;;;;;;;;;7.05;53.73;97295.98;1720683;82;21359;-59
2021/05/09 04:54:43;;;;;;;;;;;;;;;7.09;53.40;97292.38;1730267;81;20223;-60
2021/05/09 04:57:10;;;;;;;;;;;;;;;7.09;52.63;97296.67;1730392;81;20221;-61
2021/05/09 04:59:38;;;;;;;;;;;;;;;7.02;53.02;97294.00;1728899;81;20242;-60
2021/05/09 05:02:05;;;;;;;;;;;;;;;6.99;53.44;97293.24;1730204;81;20282;-60
2021/05/09 05:04:33;;;;;;;;;;;;;;;7.03;53.21;97292.64;1731585;82;21212;-59
2021/05/09 05:07:00;;;;;;;;;;;;;;;7.11;53.56;97293.59;1728364;82;20226;-60
2021/05/09 05:09:28;;;;;;;;;;;;;;;7.26;53.25;97298.05;1729166;82;20226;-60
2021/05/09 05:11:56;;;;;;;;;;;;;;;7.35;52.97;97302.80;1734601;81;20292;-60
2021/05/09 05:14:24;;;;;;;;;;;;;;;7.44;52.40;97305.86;1727703;81;20218;-60
2021/05/09 05:16:52;;;;;;;;;;;;;;;7.48;52.87;97302.22;1737429;81;21277;-60
2021/05/09 05:19:22;;;;;;;;;;;;;;;7.58;52.35;97306.03;1732644;81;20282;-58
2021/05/09 05:21:49;;;;;;;;;;;;;;;7.65;51.84;97306.61;1730862;81;20309;-59
2021/05/09 05:24:17;;;;;;;;;;;;;;;7.62;51.90;97306.75;1734466;81;21083;-59
2021/05/09 05:26:45;;;;;;;;;;;;;;;7.46;52.07;97306.16;1724240;82;20238;-60
2021/05/09 05:29:13;;;;;;;;;;;;;;;7.34;52.66;97308.86;1730242;81;21225;-60
2021/05/09 05:31:41;;;;;;;;;;;;;;;7.30;52.75;97311.22;1732027;81;20211;-60
2021/05/09 05:34:09;;;;;;;;;;;;;;;7.26;52.94;97308.38;1730402;81;20240;-59
2021/05/09 05:36:36;;;;;;;;;;;;;;;7.28;52.69;97313.00;1732618;81;20737;-61
2021/05/09 05:39:06;;;;;;;;;;;;;;;7.41;52.57;97317.16;1724125;81;20263;-60
2021/05/09 05:41:33;;;;;;;;;;;;;;;7.55;52.38;97312.20;1737220;81;21210;-60
2021/05/09 05:44:01;;;;;;;;;;;;;;;7.97;52.01;97313.27;1730538;81;20227;-60
2021/05/09 05:46:30;;;;;;;;;;;;;;;8.41;50.57;97307.66;1724344;81;20247;-58
2021/05/09 05:48:57;;;;;;;;;;;;;;;8.86;49.87;97306.69;1720836;81;20497;-59
2021/05/09 05:51:24;;;;;;;;;;;;;;;9.33;49.10;97302.05;1734395;81;20249;-58
2021/05/09 05:53:56;;;;;;;;;;;;;;;10.03;48.24;97303.78;1733349;81;21210;-59
2021/05/09 05:56:24;;;;;;;;;;;;;;;11.10;46.07;97301.43;1734024;81;20219;-60
2021/05/09 05:58:52;;;;;;;;;;;;;;;12.19;42.20;97298.45;1735485;81;20223;-58
2021/05/09 06:01:21;;;;;;;;;;;;;;;13.08;40.70;97298.95;1726367;82;20688;-61
2021/05/09 06:03:49;;;;;;;;;;;;;;;13.84;40.07;97298.86;1728150;81;20222;-60
2021/05/09 06:06:16;;;;;;;;;;;;;;;14.64;38.88;97296.09;1730676;81;21232;-59
2021/05/09 06:08:45;;;;;;;;;;;;;;;15.47;36.24;97301.41;1705395;81;20247;-56
2021/05/09 06:11:13;;;;;;;;;;;;;;;16.19;35.97;97291.70;1741873;81;20500;-60
2021/05/09 06:13:40;;;;;;;;;;;;;;;16.86;34.84;97294.92;1734080;81;20247;-60
2021/05/09 06:16:08;;;;;;;;;;;;;;;17.52;34.20;97288.40;1734848;81;20223;-61
2021/05/09 06:18:36;;;;;;;;;;;;;;;18.31;32.62;97286.70;1737445;81;21405;-60
2021/05/09 06:21:04;;;;;;;;;;;;;;;18.90;31.28;97290.06;1729819;81;20294;-60
2021/05/09 06:23:32;;;;;;;;;;;;;;;19.20;31.21;97286.34;1738810;81;20235;-61
2021/05/09 06:26:00;;;;;;;;;;;;;;;19.49;28.89;97283.56;1732994;81;20257;-59
2021/05/09 06:28:27;;;;;;;;;;;;;;;19.27;29.66;97283.95;1737939;81;20625;-60
2021/05/09 06:30:55;;;;;;;;;;;;;;;19.34;30.16;97281.06;1736992;81;21230;-60
2021/05/09 06:33:22;;;;;;;;;;;;;;;19.52;30.70;97285.55;1730843;81;20234;-61
2021/05/09 06:35:53;;;;;;;;;;;;;;;19.90;29.68;97288.94;1733818;81;20215;-62
2021/05/09 06:38:20;;;;;;;;;;;;;;;19.82;27.87;97279.98;1732881;81;20255;-61
2021/05/09 06:40:49;;;;;;;;;;;;;;;19.44;28.63;97277.06;1736807;81;20231;-58
2021/05/09 06:43:17;;;;;;;;;;;;;;;19.63;29.58;97275.64;1733192;81;21157;-62
2021/05/09 06:45:47;;;;;;;;;;;;;;;20.08;28.56;97273.95;1736444;81;20302;-61
2021/05/09 06:48:14;;;;;;;;;;;;;;;20.32;26.76;97261.48;1736105;81;20274;-62
2021/05/09 06:50:42;;;;;;;;;;;;;;;19.95;26.83;97273.51;1736234;81;20545;-61
2021/05/09 06:53:09;;;;;;;;;;;;;;;19.54;27.55;97272.59;1739977;81;20223;-61
2021/05/09 06:55:36;;;;;;;;;;;;;;;19.42;27.78;97269.81;1729553;81;21223;-60
2021/05/09 06:58:09;;;;;;;;;;;;;;;19.54;26.63;97262.53;1736077;81;20486;-60
2021/05/09 07:00:42;;;;;;;;;;;;;;;19.02;26.80;97269.17;1734948;81;20212;-64
2021/05/09 07:03:11;;;;;;;;;;;;;;;18.47;27.09;97262.45;1733497;81;20232;-62
2021/05/09 07:05:41;;;;;;;;;;;;;;;18.20;28.66;97259.58;1733741;81;20332;-61
2021/05/09 07:08:09;;;;;;;;;;;;;;;18.22;26.73;97258.13;1723424;81;21274;-60
2021/05/09 07:10:39;;;;;;;;;;;;;;;17.70;27.92;97262.33;1735164;81;20227;-61
2021/05/09 07:13:08;;;;;;;;;;;;;;;17.10;27.97;97263.63;1735410;81;20217;-63
2021/05/09 07:15:39;;;;;;;;;;;;;;;16.85;29.01;97266.22;1724836;82;20223;-64
2021/05/09 07:18:11;;;;;;;;;;;;;;;16.87;28.75;97266.42;1723834;81;20270;-61
2021/05/09 07:20:44;;;;;;;;;;;;;;;17.00;29.32;97259.66;1730588;81;22143;-61
2021/05/09 07:23:14;;;;;;;;;;;;;;;17.24;28.74;97265.89;1735735;81;20235;-61
2021/05/09 07:25:43;;;;;;;;;;;;;;;17.52;28.35;97263.47;1724447;81;20509;-60
2021/05/09 07:28:12;;;;;;;;;;;;;;;17.66;28.74;97260.93;1726105;81;20207;-62
2021/05/09 07:30:41;;;;;;;;;;;;;;;18.05;27.97;97257.55;1732490;81;20235;-60
2021/05/09 07:33:08;;;;;;;;;;;;;;;18.02;27.80;97260.77;1726425;81;21226;-64
2021/05/09 07:35:36;;;;;;;;;;;;;;;18.05;27.85;97254.42;1728199;81;20290;-62
2021/05/09 07:38:05;;;;;;;;;;;;;;;18.37;27.98;97250.18;1726385;81;20517;-61
2021/05/09 07:40:34;;;;;;;;;;;;;;;18.71;26.72;97250.98;1731089;81;20224;-63
2021/05/09 07:43:03;;;;;;;;;;;;;;;18.69;27.41;97252.93;1723019;81;20238;-61
2021/05/09 07:45:33;;;;;;;;;;;;;;;18.17;26.44;97247.22;1719972;81;21394;-63
2021/05/09 07:48:01;;;;;;;;;;;;;;;17.74;27.15;97254.52;1732155;82;20469;-64
2021/05/09 07:50:32;;;;;;;;;;;;;;;17.66;27.45;97256.53;1734133;81;20195;-62
2021/05/09 07:53:01;;;;;;;;;;;;;;;17.95;28.57;97256.23;1732268;81;20221;-62
2021/05/09 07:55:32;;;;;;;;;;;;;;;18.46;29.02;97262.13;1733658;81;20227;-60
2021/05/09 07:58:00;;;;;;;;;;;;;;;19.05;27.71;97262.31;1741001;81;21452;-61
2021/05/09 08:00:27;;;;;;;;;;;;;;;19.41;27.38;97260.28;1727219;82;20239;-59
2021/05/09 08:02:55;;;;;;;;;;;;;;;19.70;26.68;97257.94;1735389;81;20565;-62
2021/05/09 08:05:23;;;;;;;;;;;;;;;20.06;25.76;97257.48;1719193;82;20241;-61
2021/05/09 08:07:55;;;;;;;;;;;;;;;20.30;25.46;97249.45;1734833;81;20234;-61
2021/05/09 08:10:25;;;;;;;;;;;;;;;20.30;26.14;97254.22;1727879;81;21265;-62
2021/05/09 08:12:54;;;;;;;;;;;;;;;20.67;25.61;97250.53;1727097;81;20440;-61
2021/05/09 08:15:23;;;;;;;;;;;;;;;20.38;23.77;97250.33;1738112;81;20243;-62
2021/05/09 08:17:55;;;;;;;;;;;;;;;19.81;24.46;97255.94;1733936;81;20306;-62
2021/05/09 08:20:25;;;;;;;;;;;;;;;19.26;24.33;97258.14;1738172;81;20223;-61
2021/05/09 08:22:53;;;;;;;;;;;;;;;18.98;25.13;97253.36;1712604;82;21407;-60
2021/05/09 08:25:21;;;;;;;;;;;;;;;19.10;25.25;97259.25;1725198;81;20214;-61
2021/05/09 08:27:49;;;;;;;;;;;;;;;19.34;25.24;97256.56;1723242;81;20250;-62
2021/05/09 08:30:20;;;;;;;;;;;;;;;19.51;24.82;97259.73;1732737;81;20223;-61
2021/05/09 08:32:48;;;;;;;;;;;;;;;19.36;25.11;97250.66;1735760;82;20235;-61
2021/05/09 08:35:16;;;;;;;;;;;;;;;19.57;25.23;97249.08;1728338;81;21208;-59
2021/05/09 08:37:44;;;;;;;;;;;;;;;19.89;24.69;97248.62;1730732;81;20215;-59
2021/05/09 08:40:16;;;;;;;;;;;;;;;20.20;24.80;97251.67;1736259;81;20226;-61
2021/05/09 08:42:48;;;;;;;;;;;;;;;20.43;23.83;97233.21;1720631;81;20225;-61
2021/05/09 08:45:17;;;;;;;;;;;;;;;20.38;23.91;97242.42;1732434;81;20239;-60
2021/05/09 08:47:44;;;;;;;;;;;;;;;20.41;24.99;97243.44;1734012;82;21219;-61
2021/05/09 08:50:14;;;;;;;;;;;;;;;20.78;25.00;97238.91;1733894;81;20235;-61
2021/05/09 08:52:43;;;;;;;;;;;;;;;21.26;24.42;97242.73;1722702;81;20233;-60
2021/05/09 08:55:13;;;;;;;;;;;;;;;21.82;24.54;97235.14;1740706;81;20594;-62
2021/05/09 08:57:41;;;;;;;;;;;;;;;22.40;23.49;97241.78;1730202;81;20214;-59
2021/05/09 09:00:13;;;;;;;;;;;;;;;22.53;20.75;97224.93;1720696;83;21414;-60
2021/05/09 09:02:43;;;;;;;;;;;;;;;21.87;22.78;97235.50;1721679;81;21202;-61
2021/05/09 09:05:11;;;;;;;;;;;;;;;21.96;23.84;97246.08;1728322;81;20283;-63
2021/05/09 09:07:48;;;;;;;;;;;;;;;22.22;23.81;97231.35;1720350;81;20244;-61
2021/05/09 09:10:38;;;;;;;;;;;;;;;22.68;23.19;97242.73;1729250;81;20258;-61
2021/05/09 09:13:24;;;;;;;;;;;;;;;23.05;22.92;97238.67;1734922;81;21214;-61
2021/05/09 09:15:59;;;;;;;;;;;;;;;23.48;22.34;97237.33;1720221;81;20234;-61
2021/05/09 09:18:45;;;;;;;;;;;;;;;23.69;21.66;97227.95;1721862;81;20211;-61
2021/05/09 09:21:30;;;;;;;;;;;;;;;23.91;21.61;97228.97;1721377;81;20219;-62
2021/05/09 09:24:07;;;;;;;;;;;;;;;23.97;21.32;97230.92;1726448;81;20490;-61
2021/05/09 09:26:52;;;;;;;;;;;;;;;23.98;20.49;97229.93;1723252;81;21209;-61
2021/05/09 09:29:29;;;;;;;;;;;;;;;23.97;19.58;97228.78;1715403;83;20488;-61
2021/05/09 09:32:00;;;;;;;;;;;;;;;23.34;20.17;97231.47;1727518;81;20230;-61
2021/05/09 09:34:48;;;;;;;;;;;;;;;22.98;20.68;97228.77;1727422;81;20840;-60
2021/05/09 09:37:21;;;;;;;;;;;;;;;22.70;20.60;97234.16;1722004;81;20302;-60
2021/05/09 09:39:59;;;;;;;;;;;;;;;22.43;22.21;97236.16;1720475;81;21215;-58
2021/05/09 09:42:42;;;;;;;;;;;;;;;22.47;20.40;97243.26;1721463;81;20560;-59
2021/05/09 09:45:17;;;;;;;;;;;;;;;21.95;21.22;97237.30;1720387;81;20290;-60
2021/05/09 09:47:53;;;;;;;;;;;;;;;21.38;21.29;97241.98;1721326;81;20293;-60
2021/05/09 09:50:43;;;;;;;;;;;;;;;20.97;22.01;97239.18;1721888;81;20232;-60
2021/05/09 09:53:29;;;;;;;;;;;;;;;20.82;22.33;97228.36;1724235;81;21158;-60
2021/05/09 09:56:09;;;;;;;;;;;;;;;20.76;22.36;97235.61;1717235;83;20262;-60
2021/05/09 09:58:46;;;;;;;;;;;;;;;20.54;22.69;97223.73;1717071;81;20319;-59
2021/05/09 10:01:15;;;;;;;;;;;;;;;20.41;21.59;97230.73;1690688;84;20236;-59
2021/05/09 10:03:43;;;;;;;;;;;;;;;19.87;23.14;97232.14;1689724;84;20256;-61
2021/05/09 10:06:11;;;;;;;;;;;;;;;19.54;23.00;97231.80;1697163;83;20540;-61
2021/05/09 10:08:39;;;;;;;;;;;;;;;19.23;23.98;97233.94;1692917;84;20249;-63
2021/05/09 10:11:09;;;;;;;;;;;;;;;19.31;23.58;97219.05;1692765;83;20246;-65
2021/05/09 10:13:38;;;;;;;;;;;;;;;19.41;24.07;97222.12;1692777;84;20244;-63
2021/05/09 10:16:05;;;;;;;;;;;;;;;19.58;23.45;97219.98;1695417;83;20256;-64
2021/05/09 10:18:33;;;;;;;;;;;;;;;19.81;24.58;97213.81;1700456;84;21377;-68
2021/05/09 10:21:02;;;;;;;;;;;;;;;20.21;24.80;97210.34;1686139;84;20247;-62
2021/05/09 10:23:29;;;;;;;;;;;;;;;20.28;23.30;97210.08;1701201;84;20229;-59
2021/05/09 10:25:58;;;;;;;;;;;;;;;20.01;23.45;97209.20;1701366;84;20532;-62
2021/05/09 10:28:37;;;;;;;;;;;;;;;19.83;22.79;97201.81;1700682;84;20280;-60
2021/05/09 10:31:04;;;;;;;;;;;;;;;19.38;23.09;97212.71;1701407;84;21196;-60
2021/05/09 10:33:41;;;;;;;;;;;;;;;19.11;25.37;97212.23;1701184;84;20529;-58
2021/05/09 10:36:11;;;;;;;;;;;;;;;19.27;25.89;97207.16;1670188;84;20570;-60
2021/05/09 10:39:09;;;;;;;;;;;;;;;19.49;25.03;97208.55;1647055;87;20256;-60
2021/05/09 10:41:39;;;;;;;;;;;;;;;19.68;24.97;97211.52;1646991;85;20263;-60
2021/05/09 10:44:44;;;;;;;;;;;;;;;19.59;22.84;97208.95;1643629;87;21213;-60
2021/05/09 10:47:31;;;;;;;;;;;;;;;19.13;23.16;97208.99;1646987;87;20234;-60
2021/05/09 10:50:20;;;;;;;;;;;;;;;18.78;24.34;97207.86;1645486;86;20225;-59
2021/05/09 10:52:46;;;;;;;;;;;;;;;18.81;24.29;97204.13;1646870;87;20233;-60
2021/05/09 10:55:42;;;;;;;;;;;;;;;18.74;24.53;97209.13;1647041;87;20254;-60
2021/05/09 10:58:14;;;;;;;;;;;;;;;18.60;24.47;97213.04;1647048;85;21261;-61
2021/05/09 11:01:00;;;;;;;;;;;;;;;18.47;25.38;97206.81;1676055;85;20240;-59
2021/05/09 11:03:40;;;;;;;;;;;;;;;18.62;25.13;97205.86;1676401;85;20232;-59
2021/05/09 11:06:23;;;;;;;;;;;;;;;18.78;24.37;97211.80;1676409;85;20659;-59
2021/05/09 11:09:03;;;;;;;;;;;;;;;18.75;25.13;97197.66;1676434;85;20306;-60
2021/05/09 11:11:38;;;;;;;;;;;;;;;18.85;24.33;97197.16;1676338;85;22584;-60
2021/05/09 11:14:08;;;;;;;;;;;;;;;18.90;23.84;97204.11;1676111;85;20235;-60
2021/05/09 11:16:39;;;;;;;;;;;;;;;18.75;24.47;97191.91;1676384;85;20502;-59
2021/05/09 11:19:13;;;;;;;;;;;;;;;18.62;25.08;97185.30;1676403;85;20255;-59
2021/05/09 11:21:47;;;;;;;;;;;;;;;18.56;24.47;97178.84;1672073;85;20221;-59
2021/05/09 11:24:22;;;;;;;;;;;;;;;18.55;24.86;97188.53;1657263;86;21472;-59
2021/05/09 11:26:52;;;;;;;;;;;;;;;18.63;24.93;97185.66;1657610;86;20513;-62
2021/05/09 11:29:21;;;;;;;;;;;;;;;18.80;25.58;97180.96;1655051;85;20509;-59
2021/05/09 11:31:50;;;;;;;;;;;;;;;18.97;25.54;97182.50;1657549;86;20221;-59
2021/05/09 11:34:18;;;;;;;;;;;;;;;19.15;24.26;97178.59;1657541;86;20217;-58
2021/05/09 11:36:48;;;;;;;;;;;;;;;19.19;24.33;97166.30;1657566;86;21363;-60
2021/05/09 11:39:21;;;;;;;;;;;;;;;19.24;24.52;97171.97;1657587;86;20230;-60
2021/05/09 11:42:02;;;;;;;;;;;;;;;19.18;23.31;97165.13;1657502;86;20225;-59
2021/05/09 11:44:49;;;;;;;;;;;;;;;18.98;24.07;97157.37;1655419;85;20535;-60
2021/05/09 11:47:24;;;;;;;;;;;;;;;18.96;24.72;97159.80;1652179;85;20236;-60
2021/05/09 11:49:56;;;;;;;;;;;;;;;18.98;25.79;97156.06;1630761;88;21624;-60
2021/05/09 11:52:27;;;;;;;;;;;;;;;19.18;25.80;97154.60;1641636;87;20238;-60
2021/05/09 11:54:59;;;;;;;;;;;;;;;19.38;24.00;97146.11;1622052;87;20229;-60
2021/05/09 11:57:30;;;;;;;;;;;;;;;19.38;24.41;97152.19;1649516;86;20571;-60
2021/05/09 12:00:03;;;;;;;;;;;;;;;19.48;24.24;97156.07;1671120;85;20219;-61
2021/05/09 12:02:32;;;;;;;;;;;;;;;19.61;23.05;97146.48;1675233;85;21444;-61
2021/05/09 12:05:03;;;;;;;;;;;;;;;19.52;24.22;97144.25;1675084;85;20243;-60
2021/05/09 12:07:43;;;;;;;;;;;;;;;19.64;24.33;97135.66;1667835;86;20225;-60
2021/05/09 12:10:20;;;;;;;;;;;;;;;19.71;23.85;97131.42;1668021;86;21939;-61
2021/05/09 12:12:47;;;;;;;;;;;;;;;19.74;25.02;97126.36;1669783;86;20244;-58
2021/05/09 12:15:17;;;;;;;;;;;;;;;19.92;24.59;97125.86;1670582;85;22297;-60
2021/05/09 12:17:54;;;;;;;;;;;;;;;19.98;23.17;97130.52;1670455;85;20235;-60
2021/05/09 12:20:40;;;;;;;;;;;;;;;19.88;24.21;97128.95;1670519;85;20252;-60
2021/05/09 12:23:10;;;;;;;;;;;;;;;19.96;24.64;97126.38;1670491;86;20260;-61
2021/05/09 12:25:42;;;;;;;;;;;;;;;20.19;24.21;97124.05;1670595;86;20461;-60
2021/05/09 12:28:13;;;;;;;;;;;;;;;20.33;24.06;97120.00;1641538;86;21391;-61
2021/05/09 12:30:49;;;;;;;;;;;;;;;20.45;24.91;97124.03;1656589;86;20592;-60
2021/05/09 12:33:32;;;;;;;;;;;;;;;20.59;23.93;97122.59;1661223;86;20526;-61
2021/05/09 12:36:00;;;;;;;;;;;;;;;20.64;22.23;97107.19;1662293;85;20560;-61
2021/05/09 12:38:29;;;;;;;;;;;;;;;20.42;22.97;97108.52;1653794;86;20511;-60
2021/05/09 12:41:07;;;;;;;;;;;;;;;20.39;23.58;97112.31;1656483;86;21290;-61
2021/05/09 12:43:46;;;;;;;;;;;;;;;20.38;22.84;97096.16;1656495;86;20233;-61
2021/05/09 12:46:34;;;;;;;;;;;;;;;20.34;23.05;97090.85;1656558;86;20241;-62
2021/05/09 12:49:17;;;;;;;;;;;;;;;20.14;22.66;97094.21;1656545;86;20225;-62
2021/05/09 12:52:03;;;;;;;;;;;;;;;20.07;23.72;97104.23;1655305;86;20312;-63
2021/05/09 12:54:35;;;;;;;;;;;;;;;20.14;24.07;97099.48;1656080;86;21372;-63
2021/05/09 12:57:21;;;;;;;;;;;;;;;20.25;23.50;97094.45;1659782;86;20240;-62
2021/05/09 12:59:56;;;;;;;;;;;;;;;20.29;23.12;97097.09;1642253;86;20251;-62
2021/05/09 13:02:26;;;;;;;;;;;;;;;20.29;24.29;97098.91;1657973;86;20227;-61
2021/05/09 13:04:59;;;;;;;;;;;;;;;20.28;23.74;97095.92;1657994;86;20252;-61
2021/05/09 13:07:27;;;;;;;;;;;;;;;20.29;22.73;97102.36;1658012;86;20531;-62